sensor_id;sensor_type;location;lat;lon;timestamp;temperature;humidity
55777;DHT22;54079;44.540;18.784;2023-07-09T00:02:00;17.40;87.90
55777;DHT22;54079;44.540;18.784;2023-07-09T00:04:26;17.40;88.40
55777;DHT22;54079;44.540;18.784;2023-07-09T00:06:55;17.50;88.70
55777;DHT22;54079;44.540;18.784;2023-07-09T00:09:22;17.50;88.70
55777;DHT22;54079;44.540;18.784;2023-07-09T00:11:49;17.40;88.20
55777;DHT22;54079;44.540;18.784;2023-07-09T00:14:16;17.40;88.40
55777;DHT22;54079;44.540;18.784;2023-07-09T00:16:44;17.30;88.50
55777;DHT22;54079;44.540;18.784;2023-07-09T00:19:15;17.20;88.70
55777;DHT22;54079;44.540;18.784;2023-07-09T00:21:42;17.10;89.30
55777;DHT22;54079;44.540;18.784;2023-07-09T00:24:14;17.10;89.80
55777;DHT22;54079;44.540;18.784;2023-07-09T00:26:40;17.20;89.80
55777;DHT22;54079;44.540;18.784;2023-07-09T00:29:10;17.00;90.00
55777;DHT22;54079;44.540;18.784;2023-07-09T00:31:37;17.10;90.50
55777;DHT22;54079;44.540;18.784;2023-07-09T00:34:10;17.30;90.40
55777;DHT22;54079;44.540;18.784;2023-07-09T00:36:40;17.30;90.00
55777;DHT22;54079;44.540;18.784;2023-07-09T00:39:21;17.20;89.60
55777;DHT22;54079;44.540;18.784;2023-07-09T00:41:49;17.10;89.60
55777;DHT22;54079;44.540;18.784;2023-07-09T00:44:30;17.00;89.40
55777;DHT22;54079;44.540;18.784;2023-07-09T00:49:37;17.10;89.60
55777;DHT22;54079;44.540;18.784;2023-07-09T00:55:07;17.10;90.30
55777;DHT22;54079;44.540;18.784;2023-07-09T00:57:35;17.10;90.50
55777;DHT22;54079;44.540;18.784;2023-07-09T01:00:07;17.20;90.40
55777;DHT22;54079;44.540;18.784;2023-07-09T01:02:37;17.20;90.60
55777;DHT22;54079;44.540;18.784;2023-07-09T01:05:05;17.20;90.50
55777;DHT22;54079;44.540;18.784;2023-07-09T01:07:32;17.10;90.40
55777;DHT22;54079;44.540;18.784;2023-07-09T01:09:58;17.00;90.60
55777;DHT22;54079;44.540;18.784;2023-07-09T01:12:24;17.00;90.50
55777;DHT22;54079;44.540;18.784;2023-07-09T01:14:53;16.90;90.90
55777;DHT22;54079;44.540;18.784;2023-07-09T01:17:20;17.00;90.70
55777;DHT22;54079;44.540;18.784;2023-07-09T01:19:50;17.00;90.80
55777;DHT22;54079;44.540;18.784;2023-07-09T01:22:18;17.00;90.50
55777;DHT22;54079;44.540;18.784;2023-07-09T01:24:59;17.00;91.00
55777;DHT22;54079;44.540;18.784;2023-07-09T01:27:32;17.10;91.00
55777;DHT22;54079;44.540;18.784;2023-07-09T01:30:00;17.00;90.80
55777;DHT22;54079;44.540;18.784;2023-07-09T01:32:26;16.80;91.50
55777;DHT22;54079;44.540;18.784;2023-07-09T01:34:59;16.80;91.60
55777;DHT22;54079;44.540;18.784;2023-07-09T01:37:31;16.80;91.70
55777;DHT22;54079;44.540;18.784;2023-07-09T01:39:58;16.70;92.30
55777;DHT22;54079;44.540;18.784;2023-07-09T01:42:25;16.80;91.90
55777;DHT22;54079;44.540;18.784;2023-07-09T01:44:54;16.80;91.40
55777;DHT22;54079;44.540;18.784;2023-07-09T01:47:22;16.90;91.50
55777;DHT22;54079;44.540;18.784;2023-07-09T01:49:50;16.80;91.00
55777;DHT22;54079;44.540;18.784;2023-07-09T01:52:16;16.80;91.10
55777;DHT22;54079;44.540;18.784;2023-07-09T01:54:45;16.70;91.60
55777;DHT22;54079;44.540;18.784;2023-07-09T01:57:18;16.60;91.70
55777;DHT22;54079;44.540;18.784;2023-07-09T01:59:45;16.60;91.60
55777;DHT22;54079;44.540;18.784;2023-07-09T02:02:12;16.60;91.80
55777;DHT22;54079;44.540;18.784;2023-07-09T02:04:41;16.60;92.00
55777;DHT22;54079;44.540;18.784;2023-07-09T02:07:08;16.70;92.10
55777;DHT22;54079;44.540;18.784;2023-07-09T02:09:34;16.70;92.00
55777;DHT22;54079;44.540;18.784;2023-07-09T02:12:00;16.60;91.90
55777;DHT22;54079;44.540;18.784;2023-07-09T02:14:28;16.50;91.90
55777;DHT22;54079;44.540;18.784;2023-07-09T02:16:54;16.50;92.20
55777;DHT22;54079;44.540;18.784;2023-07-09T02:19:20;16.50;92.70
55777;DHT22;54079;44.540;18.784;2023-07-09T02:21:46;16.50;92.20
55777;DHT22;54079;44.540;18.784;2023-07-09T02:24:12;16.50;92.10
55777;DHT22;54079;44.540;18.784;2023-07-09T02:26:38;16.50;92.10
55777;DHT22;54079;44.540;18.784;2023-07-09T02:29:04;16.40;93.00
55777;DHT22;54079;44.540;18.784;2023-07-09T02:31:30;16.30;93.10
55777;DHT22;54079;44.540;18.784;2023-07-09T02:33:56;16.40;92.80
55777;DHT22;54079;44.540;18.784;2023-07-09T02:36:24;16.50;92.50
55777;DHT22;54079;44.540;18.784;2023-07-09T02:38:50;16.50;92.70
55777;DHT22;54079;44.540;18.784;2023-07-09T02:41:16;16.50;92.80
55777;DHT22;54079;44.540;18.784;2023-07-09T02:43:42;16.50;92.30
55777;DHT22;54079;44.540;18.784;2023-07-09T02:46:08;16.50;92.50
55777;DHT22;54079;44.540;18.784;2023-07-09T02:48:34;16.50;92.50
55777;DHT22;54079;44.540;18.784;2023-07-09T02:51:00;16.50;92.60
55777;DHT22;54079;44.540;18.784;2023-07-09T02:53:27;16.50;92.40
55777;DHT22;54079;44.540;18.784;2023-07-09T02:55:53;16.50;92.50
55777;DHT22;54079;44.540;18.784;2023-07-09T02:58:19;16.40;92.50
55777;DHT22;54079;44.540;18.784;2023-07-09T03:00:49;16.40;92.30
55777;DHT22;54079;44.540;18.784;2023-07-09T03:03:18;16.30;92.30
55777;DHT22;54079;44.540;18.784;2023-07-09T03:05:47;16.20;92.70
55777;DHT22;54079;44.540;18.784;2023-07-09T03:08:14;16.20;93.00
55777;DHT22;54079;44.540;18.784;2023-07-09T03:10:43;16.30;92.90
55777;DHT22;54079;44.540;18.784;2023-07-09T03:13:08;16.40;92.80
55777;DHT22;54079;44.540;18.784;2023-07-09T03:15:34;16.40;92.40
55777;DHT22;54079;44.540;18.784;2023-07-09T03:18:00;16.50;92.50
55777;DHT22;54079;44.540;18.784;2023-07-09T03:20:26;16.40;92.90
55777;DHT22;54079;44.540;18.784;2023-07-09T03:22:52;16.40;93.10
55777;DHT22;54079;44.540;18.784;2023-07-09T03:25:18;16.50;92.90
55777;DHT22;54079;44.540;18.784;2023-07-09T03:27:47;16.60;92.60
55777;DHT22;54079;44.540;18.784;2023-07-09T03:30:14;16.50;92.50
55777;DHT22;54079;44.540;18.784;2023-07-09T03:32:40;16.40;93.20
55777;DHT22;54079;44.540;18.784;2023-07-09T03:35:06;16.50;92.90
55777;DHT22;54079;44.540;18.784;2023-07-09T03:37:32;16.60;92.90
55777;DHT22;54079;44.540;18.784;2023-07-09T03:39:58;16.70;92.30
55777;DHT22;54079;44.540;18.784;2023-07-09T03:42:24;16.70;92.20
55777;DHT22;54079;44.540;18.784;2023-07-09T03:44:50;16.70;92.70
55777;DHT22;54079;44.540;18.784;2023-07-09T03:47:16;16.60;92.70
55777;DHT22;54079;44.540;18.784;2023-07-09T03:49:43;16.60;92.50
55777;DHT22;54079;44.540;18.784;2023-07-09T03:52:09;16.70;92.40
55777;DHT22;54079;44.540;18.784;2023-07-09T03:54:35;16.80;92.60
55777;DHT22;54079;44.540;18.784;2023-07-09T03:57:01;16.90;92.50
55777;DHT22;54079;44.540;18.784;2023-07-09T03:59:27;17.00;92.30
55777;DHT22;54079;44.540;18.784;2023-07-09T04:01:53;17.00;92.30
55777;DHT22;54079;44.540;18.784;2023-07-09T04:04:19;17.20;92.10
55777;DHT22;54079;44.540;18.784;2023-07-09T04:06:46;17.30;92.00
55777;DHT22;54079;44.540;18.784;2023-07-09T04:09:12;17.40;91.90
55777;DHT22;54079;44.540;18.784;2023-07-09T04:11:38;17.50;91.80
55777;DHT22;54079;44.540;18.784;2023-07-09T04:14:04;17.60;91.80
55777;DHT22;54079;44.540;18.784;2023-07-09T04:16:31;17.60;91.60
55777;DHT22;54079;44.540;18.784;2023-07-09T04:18:57;17.70;91.70
55777;DHT22;54079;44.540;18.784;2023-07-09T04:21:22;18.20;91.40
55777;DHT22;54079;44.540;18.784;2023-07-09T04:23:48;20.00;90.50
55777;DHT22;54079;44.540;18.784;2023-07-09T04:26:14;21.50;86.70
55777;DHT22;54079;44.540;18.784;2023-07-09T04:28:41;22.70;83.80
55777;DHT22;54079;44.540;18.784;2023-07-09T04:31:07;23.80;81.00
55777;DHT22;54079;44.540;18.784;2023-07-09T04:33:33;24.80;77.90
55777;DHT22;54079;44.540;18.784;2023-07-09T04:36:01;25.80;73.50
55777;DHT22;54079;44.540;18.784;2023-07-09T04:38:27;26.80;70.60
55777;DHT22;54079;44.540;18.784;2023-07-09T04:40:53;27.60;67.60
55777;DHT22;54079;44.540;18.784;2023-07-09T04:43:19;28.40;64.30
55777;DHT22;54079;44.540;18.784;2023-07-09T04:45:45;28.80;64.30
55777;DHT22;54079;44.540;18.784;2023-07-09T04:48:11;29.60;62.60
55777;DHT22;54079;44.540;18.784;2023-07-09T04:50:37;30.50;61.60
55777;DHT22;54079;44.540;18.784;2023-07-09T04:53:03;31.30;59.60
55777;DHT22;54079;44.540;18.784;2023-07-09T04:55:29;32.00;58.80
55777;DHT22;54079;44.540;18.784;2023-07-09T04:57:55;32.70;57.30
55777;DHT22;54079;44.540;18.784;2023-07-09T05:00:21;33.30;56.20
55777;DHT22;54079;44.540;18.784;2023-07-09T05:02:47;33.80;55.10
55777;DHT22;54079;44.540;18.784;2023-07-09T05:05:13;34.00;53.90
55777;DHT22;54079;44.540;18.784;2023-07-09T05:07:40;34.40;53.70
55777;DHT22;54079;44.540;18.784;2023-07-09T05:10:06;34.90;52.90
55777;DHT22;54079;44.540;18.784;2023-07-09T05:12:32;35.30;52.50
55777;DHT22;54079;44.540;18.784;2023-07-09T05:14:58;35.70;52.30
55777;DHT22;54079;44.540;18.784;2023-07-09T05:17:24;36.30;51.50
55777;DHT22;54079;44.540;18.784;2023-07-09T05:19:51;36.70;50.90
55777;DHT22;54079;44.540;18.784;2023-07-09T05:22:17;37.10;49.50
55777;DHT22;54079;44.540;18.784;2023-07-09T05:24:42;37.40;49.40
55777;DHT22;54079;44.540;18.784;2023-07-09T05:27:08;38.00;48.10
55777;DHT22;54079;44.540;18.784;2023-07-09T05:29:34;38.00;47.60
55777;DHT22;54079;44.540;18.784;2023-07-09T05:32:00;38.50;47.70
55777;DHT22;54079;44.540;18.784;2023-07-09T05:34:26;39.30;46.60
55777;DHT22;54079;44.540;18.784;2023-07-09T05:36:52;39.70;45.80
55777;DHT22;54079;44.540;18.784;2023-07-09T05:39:18;40.40;45.80
55777;DHT22;54079;44.540;18.784;2023-07-09T05:41:44;40.80;45.70
55777;DHT22;54079;44.540;18.784;2023-07-09T05:44:10;41.00;45.60
55777;DHT22;54079;44.540;18.784;2023-07-09T05:46:36;41.30;45.60
55777;DHT22;54079;44.540;18.784;2023-07-09T05:49:04;41.50;44.70
55777;DHT22;54079;44.540;18.784;2023-07-09T05:51:30;42.00;44.60
55777;DHT22;54079;44.540;18.784;2023-07-09T05:53:56;42.60;44.50
55777;DHT22;54079;44.540;18.784;2023-07-09T05:56:22;42.60;43.10
55777;DHT22;54079;44.540;18.784;2023-07-09T05:58:48;43.30;43.60
55777;DHT22;54079;44.540;18.784;2023-07-09T06:01:14;43.60;43.20
55777;DHT22;54079;44.540;18.784;2023-07-09T06:03:40;44.00;42.90
55777;DHT22;54079;44.540;18.784;2023-07-09T06:06:06;44.40;42.30
55777;DHT22;54079;44.540;18.784;2023-07-09T06:08:32;44.30;42.20
55777;DHT22;54079;44.540;18.784;2023-07-09T06:11:00;45.00;41.90
55777;DHT22;54079;44.540;18.784;2023-07-09T06:13:28;45.10;41.70
55777;DHT22;54079;44.540;18.784;2023-07-09T06:15:57;45.40;41.40
55777;DHT22;54079;44.540;18.784;2023-07-09T06:18:24;46.10;40.80
55777;DHT22;54079;44.540;18.784;2023-07-09T06:20:52;46.70;40.60
55777;DHT22;54079;44.540;18.784;2023-07-09T06:23:19;47.10;40.30
55777;DHT22;54079;44.540;18.784;2023-07-09T06:25:45;47.20;40.00
55777;DHT22;54079;44.540;18.784;2023-07-09T06:28:15;47.00;39.50
55777;DHT22;54079;44.540;18.784;2023-07-09T06:30:41;46.80;39.30
55777;DHT22;54079;44.540;18.784;2023-07-09T06:33:07;46.80;39.50
55777;DHT22;54079;44.540;18.784;2023-07-09T06:35:33;46.20;39.10
55777;DHT22;54079;44.540;18.784;2023-07-09T06:37:59;46.20;38.50
55777;DHT22;54079;44.540;18.784;2023-07-09T06:40:25;46.80;39.20
55777;DHT22;54079;44.540;18.784;2023-07-09T06:42:51;46.30;38.30
55777;DHT22;54079;44.540;18.784;2023-07-09T06:45:17;47.10;38.40
55777;DHT22;54079;44.540;18.784;2023-07-09T06:47:43;47.20;37.90
55777;DHT22;54079;44.540;18.784;2023-07-09T06:50:09;47.50;38.00
55777;DHT22;54079;44.540;18.784;2023-07-09T06:52:35;48.80;37.40
55777;DHT22;54079;44.540;18.784;2023-07-09T06:55:01;49.80;36.00
55777;DHT22;54079;44.540;18.784;2023-07-09T06:57:27;50.40;37.30
55777;DHT22;54079;44.540;18.784;2023-07-09T06:59:53;50.50;36.40
55777;DHT22;54079;44.540;18.784;2023-07-09T07:02:20;50.80;36.20
55777;DHT22;54079;44.540;18.784;2023-07-09T07:04:46;50.10;36.00
55777;DHT22;54079;44.540;18.784;2023-07-09T07:07:12;50.90;35.80
55777;DHT22;54079;44.540;18.784;2023-07-09T07:09:38;51.70;34.80
55777;DHT22;54079;44.540;18.784;2023-07-09T07:12:04;51.40;34.90
55777;DHT22;54079;44.540;18.784;2023-07-09T07:14:30;50.50;35.20
55777;DHT22;54079;44.540;18.784;2023-07-09T07:16:56;50.90;35.70
55777;DHT22;54079;44.540;18.784;2023-07-09T07:19:23;51.70;35.40
55777;DHT22;54079;44.540;18.784;2023-07-09T07:21:49;52.20;34.20
55777;DHT22;54079;44.540;18.784;2023-07-09T07:24:15;51.00;34.90
55777;DHT22;54079;44.540;18.784;2023-07-09T07:26:41;51.70;35.20
55777;DHT22;54079;44.540;18.784;2023-07-09T07:29:07;52.20;35.40
55777;DHT22;54079;44.540;18.784;2023-07-09T07:31:33;51.80;34.50
55777;DHT22;54079;44.540;18.784;2023-07-09T07:33:58;51.70;35.30
55777;DHT22;54079;44.540;18.784;2023-07-09T07:36:25;53.10;34.70
55777;DHT22;54079;44.540;18.784;2023-07-09T07:38:51;53.50;34.20
55777;DHT22;54079;44.540;18.784;2023-07-09T07:41:17;52.90;35.20
55777;DHT22;54079;44.540;18.784;2023-07-09T07:43:43;52.00;33.80
55777;DHT22;54079;44.540;18.784;2023-07-09T07:46:09;51.40;34.70
55777;DHT22;54079;44.540;18.784;2023-07-09T07:48:35;52.90;34.30
55777;DHT22;54079;44.540;18.784;2023-07-09T07:51:02;53.20;33.50
55777;DHT22;54079;44.540;18.784;2023-07-09T07:53:32;53.40;33.50
55777;DHT22;54079;44.540;18.784;2023-07-09T07:55:58;52.20;34.70
55777;DHT22;54079;44.540;18.784;2023-07-09T07:58:24;52.90;34.40
55777;DHT22;54079;44.540;18.784;2023-07-09T08:00:55;53.00;33.90
55777;DHT22;54079;44.540;18.784;2023-07-09T08:03:22;52.00;35.10
55777;DHT22;54079;44.540;18.784;2023-07-09T08:05:51;51.60;34.80
55777;DHT22;54079;44.540;18.784;2023-07-09T08:08:17;52.70;34.30
55777;DHT22;54079;44.540;18.784;2023-07-09T08:10:43;53.30;33.70
55777;DHT22;54079;44.540;18.784;2023-07-09T08:13:10;54.30;33.80
55777;DHT22;54079;44.540;18.784;2023-07-09T08:15:36;54.80;33.50
55777;DHT22;54079;44.540;18.784;2023-07-09T08:18:02;55.40;32.60
55777;DHT22;54079;44.540;18.784;2023-07-09T08:20:28;55.70;33.40
55777;DHT22;54079;44.540;18.784;2023-07-09T08:22:54;56.00;32.40
55777;DHT22;54079;44.540;18.784;2023-07-09T08:25:20;56.00;32.40
55777;DHT22;54079;44.540;18.784;2023-07-09T08:27:46;55.90;31.70
55777;DHT22;54079;44.540;18.784;2023-07-09T08:30:12;55.80;33.00
55777;DHT22;54079;44.540;18.784;2023-07-09T08:32:38;54.20;31.60
55777;DHT22;54079;44.540;18.784;2023-07-09T08:35:04;55.10;31.80
55777;DHT22;54079;44.540;18.784;2023-07-09T08:37:30;56.00;32.30
55777;DHT22;54079;44.540;18.784;2023-07-09T08:39:56;56.50;32.40
55777;DHT22;54079;44.540;18.784;2023-07-09T08:42:39;57.10;32.00
55777;DHT22;54079;44.540;18.784;2023-07-09T08:48:22;57.30;32.10
55777;DHT22;54079;44.540;18.784;2023-07-09T08:50:57;57.00;32.20
55777;DHT22;54079;44.540;18.784;2023-07-09T08:55:55;56.00;31.00
55777;DHT22;54079;44.540;18.784;2023-07-09T08:58:25;55.40;31.70
55777;DHT22;54079;44.540;18.784;2023-07-09T09:00:59;56.30;31.40
55777;DHT22;54079;44.540;18.784;2023-07-09T09:05:55;55.40;31.70
55777;DHT22;54079;44.540;18.784;2023-07-09T09:08:40;54.10;31.50
55777;DHT22;54079;44.540;18.784;2023-07-09T09:13:38;47.50;33.20
55777;DHT22;54079;44.540;18.784;2023-07-09T09:16:14;43.70;35.30
55777;DHT22;54079;44.540;18.784;2023-07-09T09:18:44;41.40;37.20
55777;DHT22;54079;44.540;18.784;2023-07-09T09:21:33;38.50;39.50
55777;DHT22;54079;44.540;18.784;2023-07-09T09:24:26;37.60;41.90
55777;DHT22;54079;44.540;18.784;2023-07-09T09:26:53;36.90;41.90
55777;DHT22;54079;44.540;18.784;2023-07-09T09:29:24;36.50;40.90
55777;DHT22;54079;44.540;18.784;2023-07-09T09:31:56;35.60;42.10
55777;DHT22;54079;44.540;18.784;2023-07-09T09:34:28;35.10;41.10
55777;DHT22;54079;44.540;18.784;2023-07-09T09:36:57;34.70;44.10
55777;DHT22;54079;44.540;18.784;2023-07-09T09:39:26;34.60;42.90
55777;DHT22;54079;44.540;18.784;2023-07-09T09:41:57;34.00;43.20
55777;DHT22;54079;44.540;18.784;2023-07-09T09:44:28;34.20;45.20
55777;DHT22;54079;44.540;18.784;2023-07-09T09:46:57;34.10;44.00
55777;DHT22;54079;44.540;18.784;2023-07-09T09:49:24;33.90;44.30
55777;DHT22;54079;44.540;18.784;2023-07-09T09:51:50;33.90;43.10
55777;DHT22;54079;44.540;18.784;2023-07-09T09:54:21;34.10;41.60
55777;DHT22;54079;44.540;18.784;2023-07-09T09:56:50;33.80;41.50
55777;DHT22;54079;44.540;18.784;2023-07-09T09:59:23;34.10;44.10
55777;DHT22;54079;44.540;18.784;2023-07-09T10:02:01;34.00;42.00
55777;DHT22;54079;44.540;18.784;2023-07-09T10:04:28;33.20;45.40
55777;DHT22;54079;44.540;18.784;2023-07-09T10:07:05;32.80;44.70
55777;DHT22;54079;44.540;18.784;2023-07-09T10:09:52;32.30;46.30
55777;DHT22;54079;44.540;18.784;2023-07-09T10:23:12;32.30;43.40
55777;DHT22;54079;44.540;18.784;2023-07-09T10:39:31;32.40;46.40
55777;DHT22;54079;44.540;18.784;2023-07-09T10:42:00;32.20;48.00
55777;DHT22;54079;44.540;18.784;2023-07-09T10:44:34;32.80;45.20
55777;DHT22;54079;44.540;18.784;2023-07-09T10:47:09;33.10;46.10
55777;DHT22;54079;44.540;18.784;2023-07-09T10:49:41;33.40;45.30
55777;DHT22;54079;44.540;18.784;2023-07-09T10:52:25;33.80;45.60
55777;DHT22;54079;44.540;18.784;2023-07-09T10:55:12;34.10;44.30
55777;DHT22;54079;44.540;18.784;2023-07-09T11:00:18;34.40;45.00
55777;DHT22;54079;44.540;18.784;2023-07-09T11:02:47;34.00;44.50
55777;DHT22;54079;44.540;18.784;2023-07-09T11:05:15;32.90;45.50
55777;DHT22;54079;44.540;18.784;2023-07-09T11:07:55;32.50;46.30
55777;DHT22;54079;44.540;18.784;2023-07-09T11:14:14;32.60;45.80
55777;DHT22;54079;44.540;18.784;2023-07-09T11:16:06;32.20;46.30
55777;DHT22;54079;44.540;18.784;2023-07-09T11:18:34;32.00;45.80
55777;DHT22;54079;44.540;18.784;2023-07-09T11:21:20;31.60;47.80
55777;DHT22;54079;44.540;18.784;2023-07-09T11:23:53;31.60;47.40
55777;DHT22;54079;44.540;18.784;2023-07-09T11:26:24;31.80;46.30
55777;DHT22;54079;44.540;18.784;2023-07-09T11:29:08;32.00;47.70
55777;DHT22;54079;44.540;18.784;2023-07-09T11:36:33;31.80;46.50
55777;DHT22;54079;44.540;18.784;2023-07-09T11:39:00;31.80;45.40
55777;DHT22;54079;44.540;18.784;2023-07-09T11:41:43;31.70;47.50
55777;DHT22;54079;44.540;18.784;2023-07-09T11:49:59;32.50;46.30
55777;DHT22;54079;44.540;18.784;2023-07-09T11:52:33;32.00;44.50
55777;DHT22;54079;44.540;18.784;2023-07-09T11:55:28;32.00;46.10
55777;DHT22;54079;44.540;18.784;2023-07-09T11:58:01;32.30;48.10
55777;DHT22;54079;44.540;18.784;2023-07-09T12:00:38;32.40;47.20
55777;DHT22;54079;44.540;18.784;2023-07-09T12:03:06;32.60;47.10
55777;DHT22;54079;44.540;18.784;2023-07-09T12:05:33;32.90;48.00
55777;DHT22;54079;44.540;18.784;2023-07-09T12:07:59;32.70;47.40
55777;DHT22;54079;44.540;18.784;2023-07-09T12:10:31;32.80;47.70
55777;DHT22;54079;44.540;18.784;2023-07-09T12:12:59;31.90;48.90
55777;DHT22;54079;44.540;18.784;2023-07-09T12:15:27;31.90;47.50
55777;DHT22;54079;44.540;18.784;2023-07-09T12:17:59;31.70;48.40
55777;DHT22;54079;44.540;18.784;2023-07-09T12:20:25;31.70;46.10
55777;DHT22;54079;44.540;18.784;2023-07-09T12:22:53;31.70;47.20
55777;DHT22;54079;44.540;18.784;2023-07-09T12:25:26;31.50;49.80
55777;DHT22;54079;44.540;18.784;2023-07-09T12:27:53;31.20;47.90
55777;DHT22;54079;44.540;18.784;2023-07-09T12:30:19;30.90;46.80
55777;DHT22;54079;44.540;18.784;2023-07-09T12:32:50;30.90;48.20
55777;DHT22;54079;44.540;18.784;2023-07-09T12:35:18;31.30;49.30
55777;DHT22;54079;44.540;18.784;2023-07-09T12:37:46;31.30;49.30
55777;DHT22;54079;44.540;18.784;2023-07-09T12:40:22;31.00;47.30
55777;DHT22;54079;44.540;18.784;2023-07-09T12:42:49;30.90;48.80
55777;DHT22;54079;44.540;18.784;2023-07-09T12:45:17;30.70;49.40
55777;DHT22;54079;44.540;18.784;2023-07-09T12:47:48;31.00;48.10
55777;DHT22;54079;44.540;18.784;2023-07-09T12:50:30;31.30;48.40
55777;DHT22;54079;44.540;18.784;2023-07-09T12:53:00;31.60;49.00
55777;DHT22;54079;44.540;18.784;2023-07-09T12:55:28;31.50;49.10
55777;DHT22;54079;44.540;18.784;2023-07-09T12:57:59;31.40;46.70
55777;DHT22;54079;44.540;18.784;2023-07-09T13:00:31;31.40;48.70
55777;DHT22;54079;44.540;18.784;2023-07-09T13:02:58;30.90;45.90
55777;DHT22;54079;44.540;18.784;2023-07-09T13:05:26;31.10;48.20
55777;DHT22;54079;44.540;18.784;2023-07-09T13:08:01;31.00;48.50
55777;DHT22;54079;44.540;18.784;2023-07-09T13:10:30;30.90;47.20
55777;DHT22;54079;44.540;18.784;2023-07-09T13:13:00;31.10;47.50
55777;DHT22;54079;44.540;18.784;2023-07-09T13:18:03;31.30;48.20
55777;DHT22;54079;44.540;18.784;2023-07-09T13:20:37;31.20;48.00
55777;DHT22;54079;44.540;18.784;2023-07-09T13:23:20;31.00;48.50
55777;DHT22;54079;44.540;18.784;2023-07-09T13:25:47;31.00;48.20
55777;DHT22;54079;44.540;18.784;2023-07-09T13:28:27;31.00;49.10
55777;DHT22;54079;44.540;18.784;2023-07-09T13:30:57;30.80;47.60
55777;DHT22;54079;44.540;18.784;2023-07-09T13:33:24;30.70;47.60
55777;DHT22;54079;44.540;18.784;2023-07-09T13:35:50;30.50;47.60
55777;DHT22;54079;44.540;18.784;2023-07-09T13:38:20;30.50;50.20
55777;DHT22;54079;44.540;18.784;2023-07-09T13:40:54;30.40;50.20
55777;DHT22;54079;44.540;18.784;2023-07-09T13:43:33;30.40;49.10
55777;DHT22;54079;44.540;18.784;2023-07-09T13:46:00;30.40;50.10
55777;DHT22;54079;44.540;18.784;2023-07-09T13:48:29;30.30;47.90
55777;DHT22;54079;44.540;18.784;2023-07-09T13:50:56;30.30;47.60
55777;DHT22;54079;44.540;18.784;2023-07-09T13:53:25;30.30;47.50
55777;DHT22;54079;44.540;18.784;2023-07-09T13:55:53;30.50;48.10
55777;DHT22;54079;44.540;18.784;2023-07-09T13:58:20;30.70;49.10
55777;DHT22;54079;44.540;18.784;2023-07-09T14:00:47;30.90;49.50
55777;DHT22;54079;44.540;18.784;2023-07-09T14:03:15;30.90;49.70
55777;DHT22;54079;44.540;18.784;2023-07-09T14:05:41;31.10;49.30
55777;DHT22;54079;44.540;18.784;2023-07-09T14:08:08;31.20;48.50
55777;DHT22;54079;44.540;18.784;2023-07-09T14:10:35;31.30;49.20
55777;DHT22;54079;44.540;18.784;2023-07-09T14:13:01;30.80;49.40
55777;DHT22;54079;44.540;18.784;2023-07-09T14:15:30;30.60;48.30
55777;DHT22;54079;44.540;18.784;2023-07-09T14:17:56;30.70;48.80
55777;DHT22;54079;44.540;18.784;2023-07-09T14:20:23;30.40;51.20
55777;DHT22;54079;44.540;18.784;2023-07-09T14:22:50;30.30;47.80
55777;DHT22;54079;44.540;18.784;2023-07-09T14:25:20;30.40;47.00
55777;DHT22;54079;44.540;18.784;2023-07-09T14:27:46;30.30;48.50
55777;DHT22;54079;44.540;18.784;2023-07-09T14:30:17;30.30;48.20
55777;DHT22;54079;44.540;18.784;2023-07-09T14:32:45;30.50;49.00
55777;DHT22;54079;44.540;18.784;2023-07-09T14:35:17;30.50;48.70
55777;DHT22;54079;44.540;18.784;2023-07-09T14:37:45;30.40;49.20
55777;DHT22;54079;44.540;18.784;2023-07-09T14:40:12;30.20;48.60
55777;DHT22;54079;44.540;18.784;2023-07-09T14:42:38;30.10;49.50
55777;DHT22;54079;44.540;18.784;2023-07-09T14:45:15;30.20;48.90
55777;DHT22;54079;44.540;18.784;2023-07-09T14:47:42;30.10;48.80
55777;DHT22;54079;44.540;18.784;2023-07-09T14:50:08;29.90;50.70
55777;DHT22;54079;44.540;18.784;2023-07-09T14:52:35;29.90;49.70
55777;DHT22;54079;44.540;18.784;2023-07-09T14:55:02;29.90;51.00
55777;DHT22;54079;44.540;18.784;2023-07-09T14:57:28;29.90;50.20
55777;DHT22;54079;44.540;18.784;2023-07-09T14:59:56;30.00;50.80
55777;DHT22;54079;44.540;18.784;2023-07-09T15:02:39;29.70;49.00
55777;DHT22;54079;44.540;18.784;2023-07-09T15:05:15;29.70;48.90
55777;DHT22;54079;44.540;18.784;2023-07-09T15:07:42;29.80;53.10
55777;DHT22;54079;44.540;18.784;2023-07-09T15:10:16;29.70;52.20
55777;DHT22;54079;44.540;18.784;2023-07-09T15:12:43;29.70;50.60
55777;DHT22;54079;44.540;18.784;2023-07-09T15:17:44;29.50;51.00
55777;DHT22;54079;44.540;18.784;2023-07-09T15:20:21;29.40;53.40
55777;DHT22;54079;44.540;18.784;2023-07-09T15:22:49;29.40;49.70
55777;DHT22;54079;44.540;18.784;2023-07-09T15:25:20;29.50;51.20
55777;DHT22;54079;44.540;18.784;2023-07-09T15:27:47;29.60;50.30
55777;DHT22;54079;44.540;18.784;2023-07-09T15:32:44;29.70;51.30
55777;DHT22;54079;44.540;18.784;2023-07-09T15:35:11;29.60;51.30
55777;DHT22;54079;44.540;18.784;2023-07-09T15:37:38;29.60;52.90
55777;DHT22;54079;44.540;18.784;2023-07-09T15:40:05;29.30;51.50
55777;DHT22;54079;44.540;18.784;2023-07-09T15:42:39;29.30;52.20
55777;DHT22;54079;44.540;18.784;2023-07-09T15:45:05;29.10;50.60
55777;DHT22;54079;44.540;18.784;2023-07-09T15:47:31;29.20;51.60
55777;DHT22;54079;44.540;18.784;2023-07-09T15:49:58;29.20;52.50
55777;DHT22;54079;44.540;18.784;2023-07-09T15:52:24;29.20;53.20
55777;DHT22;54079;44.540;18.784;2023-07-09T15:54:50;29.10;51.10
55777;DHT22;54079;44.540;18.784;2023-07-09T15:57:16;29.20;51.20
55777;DHT22;54079;44.540;18.784;2023-07-09T15:59:42;29.20;52.40
55777;DHT22;54079;44.540;18.784;2023-07-09T16:02:13;29.10;52.40
55777;DHT22;54079;44.540;18.784;2023-07-09T16:04:43;28.80;51.90
55777;DHT22;54079;44.540;18.784;2023-07-09T16:07:10;28.80;51.20
55777;DHT22;54079;44.540;18.784;2023-07-09T16:09:37;28.80;52.50
55777;DHT22;54079;44.540;18.784;2023-07-09T16:12:05;28.80;52.50
55777;DHT22;54079;44.540;18.784;2023-07-09T16:14:35;28.90;52.50
55777;DHT22;54079;44.540;18.784;2023-07-09T16:17:01;29.00;53.70
55777;DHT22;54079;44.540;18.784;2023-07-09T16:19:29;29.00;54.10
55777;DHT22;54079;44.540;18.784;2023-07-09T16:22:04;29.10;52.60
55777;DHT22;54079;44.540;18.784;2023-07-09T16:24:33;29.00;54.00
55777;DHT22;54079;44.540;18.784;2023-07-09T16:27:02;28.90;54.40
55777;DHT22;54079;44.540;18.784;2023-07-09T16:29:30;28.90;53.80